sensor_id;sensor_type;location;lat;lon;timestamp;pressure;altitude;pressure_sealevel;temperature;humidity
12666;BME280;58531;59.050;17.416;2022-11-20T00:02:21;101137.66;;;-0.67;100.00
12666;BME280;58531;59.050;17.416;2022-11-20T00:04:48;101130.22;;;-0.65;100.00
12666;BME280;58531;59.050;17.416;2022-11-20T00:07:14;101128.69;;;-0.66;100.00
12666;BME280;58531;59.050;17.416;2022-11-20T00:09:42;101128.00;;;-0.63;100.00
12666;BME280;58531;59.050;17.416;2022-11-20T00:12:09;101119.31;;;-0.67;100.00
12666;BME280;58531;59.050;17.416;2022-11-20T00:14:36;101117.50;;;-0.63;100.00
12666;BME280;58531;59.050;17.416;2022-11-20T00:17:05;101121.25;;;-0.64;100.00
12666;BME280;58531;59.050;17.416;2022-11-20T00:19:32;101117.19;;;-0.62;100.00
12666;BME280;58531;59.050;17.416;2022-11-20T00:21:59;101120.22;;;-0.60;100.00
12666;BME280;58531;59.050;17.416;2022-11-20T00:24:26;101116.81;;;-0.60;100.00
12666;BME280;58531;59.050;17.416;2022-11-20T00:26:53;101118.69;;;-0.61;100.00
12666;BME280;58531;59.050;17.416;2022-11-20T00:29:19;101107.09;;;-0.60;100.00
12666;BME280;58531;59.050;17.416;2022-11-20T00:31:47;101100.38;;;-0.57;100.00
12666;BME280;58531;59.050;17.416;2022-11-20T00:34:16;101104.13;;;-0.58;100.00
12666;BME280;58531;59.050;17.416;2022-11-20T00:36:43;101109.78;;;-0.56;100.00
12666;BME280;58531;59.050;17.416;2022-11-20T00:39:09;101104.94;;;-0.54;100.00
12666;BME280;58531;59.050;17.416;2022-11-20T00:41:37;101104.53;;;-0.56;100.00
12666;BME280;58531;59.050;17.416;2022-11-20T00:44:04;101105.34;;;-0.52;100.00
12666;BME280;58531;59.050;17.416;2022-11-20T00:46:31;101095.97;;;-0.53;100.00
12666;BME280;58531;59.050;17.416;2022-11-20T00:48:58;101088.56;;;-0.48;100.00
12666;BME280;58531;59.050;17.416;2022-11-20T00:51:27;101087.81;;;-0.48;100.00
12666;BME280;58531;59.050;17.416;2022-11-20T00:53:55;101081.88;;;-0.45;100.00
12666;BME280;58531;59.050;17.416;2022-11-20T00:56:22;101075.81;;;-0.49;100.00
12666;BME280;58531;59.050;17.416;2022-11-20T00:58:49;101077.31;;;-0.48;100.00
12666;BME280;58531;59.050;17.416;2022-11-20T01:01:18;101074.75;;;-0.45;100.00
12666;BME280;58531;59.050;17.416;2022-11-20T01:03:48;101079.66;;;-0.43;100.00
12666;BME280;58531;59.050;17.416;2022-11-20T01:06:17;101075.84;;;-0.46;100.00
12666;BME280;58531;59.050;17.416;2022-11-20T01:08:47;101074.00;;;-0.45;100.00
12666;BME280;58531;59.050;17.416;2022-11-20T01:11:17;101069.47;;;-0.48;100.00
12666;BME280;58531;59.050;17.416;2022-11-20T01:13:45;101073.19;;;-0.49;100.00
12666;BME280;58531;59.050;17.416;2022-11-20T01:16:14;101068.34;;;-0.47;100.00
12666;BME280;58531;59.050;17.416;2022-11-20T01:18:44;101067.53;;;-0.51;100.00
12666;BME280;58531;59.050;17.416;2022-11-20T01:21:14;101062.28;;;-0.51;100.00
12666;BME280;58531;59.050;17.416;2022-11-20T01:23:43;101056.50;;;-0.60;100.00
12666;BME280;58531;59.050;17.416;2022-11-20T01:26:14;101056.91;;;-0.58;100.00
12666;BME280;58531;59.050;17.416;2022-11-20T01:28:42;101059.91;;;-0.60;100.00
12666;BME280;58531;59.050;17.416;2022-11-20T01:31:14;101057.59;;;-0.61;100.00
12666;BME280;58531;59.050;17.416;2022-11-20T01:33:42;101054.56;;;-0.63;100.00
12666;BME280;58531;59.050;17.416;2022-11-20T01:36:10;101053.06;;;-0.64;100.00
12666;BME280;58531;59.050;17.416;2022-11-20T01:38:38;101044.03;;;-0.67;100.00
12666;BME280;58531;59.050;17.416;2022-11-20T01:41:06;101039.50;;;-0.70;100.00
12666;BME280;58531;59.050;17.416;2022-11-20T01:43:34;101041.75;;;-0.68;100.00
12666;BME280;58531;59.050;17.416;2022-11-20T01:46:15;101041.47;;;-0.63;100.00
12666;BME280;58531;59.050;17.416;2022-11-20T01:48:47;101039.53;;;-0.66;100.00
12666;BME280;58531;59.050;17.416;2022-11-20T01:51:21;101034.25;;;-0.70;100.00
12666;BME280;58531;59.050;17.416;2022-11-20T01:53:52;101031.25;;;-0.68;100.00
12666;BME280;58531;59.050;17.416;2022-11-20T01:56:21;101022.66;;;-0.69;100.00
12666;BME280;58531;59.050;17.416;2022-11-20T01:58:53;101027.41;;;-0.74;100.00
12666;BME280;58531;59.050;17.416;2022-11-20T02:01:21;101019.25;;;-0.69;100.00
12666;BME280;58531;59.050;17.416;2022-11-20T02:03:49;101014.00;;;-0.69;100.00
12666;BME280;58531;59.050;17.416;2022-11-20T02:06:19;101017.75;;;-0.70;100.00
12666;BME280;58531;59.050;17.416;2022-11-20T02:08:48;101008.72;;;-0.73;100.00
12666;BME280;58531;59.050;17.416;2022-11-20T02:11:16;101011.34;;;-0.73;100.00
12666;BME280;58531;59.050;17.416;2022-11-20T02:13:44;101015.13;;;-0.70;100.00
12666;BME280;58531;59.050;17.416;2022-11-20T02:16:21;101004.22;;;-0.72;100.00
12666;BME280;58531;59.050;17.416;2022-11-20T02:18:50;101000.44;;;-0.75;100.00
12666;BME280;58531;59.050;17.416;2022-11-20T02:21:28;101006.44;;;-0.74;100.00
12666;BME280;58531;59.050;17.416;2022-11-20T02:24:06;100990.78;;;-0.71;100.00
12666;BME280;58531;59.050;17.416;2022-11-20T02:26:39;100985.13;;;-0.73;100.00
12666;BME280;58531;59.050;17.416;2022-11-20T02:29:08;100983.25;;;-0.72;100.00
12666;BME280;58531;59.050;17.416;2022-11-20T02:31:40;100973.88;;;-0.73;100.00
12666;BME280;58531;59.050;17.416;2022-11-20T02:34:09;100970.50;;;-0.74;100.00
12666;BME280;58531;59.050;17.416;2022-11-20T02:36:39;100969.28;;;-0.80;100.00
12666;BME280;58531;59.050;17.416;2022-11-20T02:39:11;100964.47;;;-0.74;100.00
12666;BME280;58531;59.050;17.416;2022-11-20T02:41:42;100960.34;;;-0.75;100.00
12666;BME280;58531;59.050;17.416;2022-11-20T02:44:09;100960.34;;;-0.75;100.00
12666;BME280;58531;59.050;17.416;2022-11-20T02:46:36;100962.22;;;-0.76;100.00
12666;BME280;58531;59.050;17.416;2022-11-20T02:49:03;100957.34;;;-0.77;100.00
12666;BME280;58531;59.050;17.416;2022-11-20T02:51:31;100957.34;;;-0.77;100.00
12666;BME280;58531;59.050;17.416;2022-11-20T02:53:58;100956.53;;;-0.81;100.00
12666;BME280;58531;59.050;17.416;2022-11-20T02:56:26;100953.53;;;-0.80;100.00
12666;BME280;58531;59.050;17.416;2022-11-20T02:58:54;100949.47;;;-0.77;100.00
12666;BME280;58531;59.050;17.416;2022-11-20T03:01:21;100950.91;;;-0.80;100.00
12666;BME280;58531;59.050;17.416;2022-11-20T03:03:47;100945.25;;;-0.82;100.00
12666;BME280;58531;59.050;17.416;2022-11-20T03:06:15;100947.16;;;-0.82;100.00
12666;BME280;58531;59.050;17.416;2022-11-20T03:08:42;100942.72;;;-0.78;100.00
12666;BME280;58531;59.050;17.416;2022-11-20T03:11:09;100950.91;;;-0.80;100.00
12666;BME280;58531;59.050;17.416;2022-11-20T03:13:37;100934.44;;;-0.80;100.00
12666;BME280;58531;59.050;17.416;2022-11-20T03:16:08;100935.19;;;-0.80;100.00
12666;BME280;58531;59.050;17.416;2022-11-20T03:18:37;100930.31;;;-0.81;100.00
12666;BME280;58531;59.050;17.416;2022-11-20T03:21:04;100924.66;;;-0.83;100.00
12666;BME280;58531;59.050;17.416;2022-11-20T03:23:32;100928.38;;;-0.84;100.00
12666;BME280;58531;59.050;17.416;2022-11-20T03:26:10;100928.38;;;-0.84;100.00
12666;BME280;58531;59.050;17.416;2022-11-20T03:28:40;100920.41;;;-0.91;100.00
12666;BME280;58531;59.050;17.416;2022-11-20T03:31:08;100923.44;;;-0.89;100.00
12666;BME280;58531;59.050;17.416;2022-11-20T03:33:36;100915.69;;;-0.82;100.00
12666;BME280;58531;59.050;17.416;2022-11-20T03:36:04;100905.91;;;-0.85;100.00
12666;BME280;58531;59.050;17.416;2022-11-20T03:38:32;100911.16;;;-0.85;100.00
12666;BME280;58531;59.050;17.416;2022-11-20T03:41:00;100904.38;;;-0.86;100.00
12666;BME280;58531;59.050;17.416;2022-11-20T03:43:28;100900.25;;;-0.87;100.00
12666;BME280;58531;59.050;17.416;2022-11-20T03:45:56;100899.13;;;-0.86;100.00
12666;BME280;58531;59.050;17.416;2022-11-20T03:48:23;100887.47;;;-0.89;100.00
12666;BME280;58531;59.050;17.416;2022-11-20T03:50:50;100902.88;;;-0.87;100.00
12666;BME280;58531;59.050;17.416;2022-11-20T03:53:18;100888.69;;;-0.83;100.00
12666;BME280;58531;59.050;17.416;2022-11-20T03:55:45;100884.94;;;-0.85;100.00
12666;BME280;58531;59.050;17.416;2022-11-20T03:58:12;100881.50;;;-0.89;100.00
12666;BME280;58531;59.050;17.416;2022-11-20T04:00:39;100885.25;;;-0.87;100.00
12666;BME280;58531;59.050;17.416;2022-11-20T04:03:08;100878.16;;;-0.86;100.00
12666;BME280;58531;59.050;17.416;2022-11-20T04:05:34;100871.47;;;-0.84;100.00
12666;BME280;58531;59.050;17.416;2022-11-20T04:08:02;100864.78;;;-0.81;100.00
12666;BME280;58531;59.050;17.416;2022-11-20T04:10:29;100858.75;;;-0.82;100.00
12666;BME280;58531;59.050;17.416;2022-11-20T04:12:58;100865.47;;;-0.84;100.00
12666;BME280;58531;59.050;17.416;2022-11-20T04:15:25;100864.69;;;-0.85;100.00
12666;BME280;58531;59.050;17.416;2022-11-20T04:17:53;100858.72;;;-0.85;100.00
12666;BME280;58531;59.050;17.416;2022-11-20T04:20:22;100851.25;;;-0.83;100.00
12666;BME280;58531;59.050;17.416;2022-11-20T04:22:49;100857.94;;;-0.86;100.00
12666;BME280;58531;59.050;17.416;2022-11-20T04:25:19;100848.22;;;-0.85;100.00
12666;BME280;58531;59.050;17.416;2022-11-20T04:27:47;100842.91;;;-0.89;100.00
12666;BME280;58531;59.050;17.416;2022-11-20T04:30:14;100850.38;;;-0.91;100.00
12666;BME280;58531;59.050;17.416;2022-11-20T04:32:40;100850.03;;;-0.89;100.00
12666;BME280;58531;59.050;17.416;2022-11-20T04:35:08;100848.16;;;-0.89;100.00
12666;BME280;58531;59.050;17.416;2022-11-20T04:37:36;100837.34;;;-0.87;100.00
12666;BME280;58531;59.050;17.416;2022-11-20T04:40:04;100835.13;;;-0.85;100.00
12666;BME280;58531;59.050;17.416;2022-11-20T04:42:31;100843.00;;;-0.85;100.00
12666;BME280;58531;59.050;17.416;2022-11-20T04:44:58;100832.50;;;-0.85;100.00
12666;BME280;58531;59.050;17.416;2022-11-20T04:47:24;100838.44;;;-0.88;100.00
12666;BME280;58531;59.050;17.416;2022-11-20T04:49:51;100829.88;;;-0.85;100.00
12666;BME280;58531;59.050;17.416;2022-11-20T04:52:18;100833.94;;;-0.88;100.00
12666;BME280;58531;59.050;17.416;2022-11-20T04:54:47;100831.69;;;-0.89;100.00
12666;BME280;58531;59.050;17.416;2022-11-20T04:57:14;100827.97;;;-0.88;100.00
12666;BME280;58531;59.050;17.416;2022-11-20T04:59:41;100824.22;;;-0.87;100.00
12666;BME280;58531;59.050;17.416;2022-11-20T05:02:10;100817.47;;;-0.88;100.00
12666;BME280;58531;59.050;17.416;2022-11-20T05:04:36;100816.78;;;-0.85;100.00
12666;BME280;58531;59.050;17.416;2022-11-20T05:07:03;100812.28;;;-0.85;100.00
12666;BME280;58531;59.050;17.416;2022-11-20T05:09:30;100814.84;;;-0.88;100.00
12666;BME280;58531;59.050;17.416;2022-11-20T05:11:59;100813.75;;;-0.87;100.00
12666;BME280;58531;59.050;17.416;2022-11-20T05:14:26;100799.88;;;-0.88;100.00
12666;BME280;58531;59.050;17.416;2022-11-20T05:16:53;100803.19;;;-0.91;100.00
12666;BME280;58531;59.050;17.416;2022-11-20T05:19:20;100805.00;;;-0.95;100.00
12666;BME280;58531;59.050;17.416;2022-11-20T05:21:47;100789.34;;;-0.91;100.00
12666;BME280;58531;59.050;17.416;2022-11-20T05:24:14;100791.19;;;-0.92;100.00
12666;BME280;58531;59.050;17.416;2022-11-20T05:26:42;100795.75;;;-0.89;100.00
12666;BME280;58531;59.050;17.416;2022-11-20T05:29:11;100787.94;;;-0.85;100.00
12666;BME280;58531;59.050;17.416;2022-11-20T05:31:39;100794.28;;;-0.86;100.00
12666;BME280;58531;59.050;17.416;2022-11-20T05:34:07;100791.97;;;-0.91;100.00
12666;BME280;58531;59.050;17.416;2022-11-20T05:36:34;100784.50;;;-0.89;100.00
12666;BME280;58531;59.050;17.416;2022-11-20T05:39:01;100781.88;;;-0.89;100.00
12666;BME280;58531;59.050;17.416;2022-11-20T05:41:29;100772.53;;;-0.87;100.00
12666;BME280;58531;59.050;17.416;2022-11-20T05:43:56;100768.78;;;-0.89;100.00
12666;BME280;58531;59.050;17.416;2022-11-20T05:46:25;100768.38;;;-0.91;100.00
12666;BME280;58531;59.050;17.416;2022-11-20T05:48:52;100767.28;;;-0.90;100.00
12666;BME280;58531;59.050;17.416;2022-11-20T05:51:20;100754.56;;;-0.88;100.00
12666;BME280;58531;59.050;17.416;2022-11-20T05:53:47;100755.28;;;-0.91;100.00
12666;BME280;58531;59.050;17.416;2022-11-20T05:56:15;100753.06;;;-0.89;100.00
12666;BME280;58531;59.050;17.416;2022-11-20T05:58:43;100751.94;;;-0.88;100.00
12666;BME280;58531;59.050;17.416;2022-11-20T06:01:13;100750.03;;;-0.91;100.00
12666;BME280;58531;59.050;17.416;2022-11-20T06:03:43;100737.25;;;-0.93;100.00
12666;BME280;58531;59.050;17.416;2022-11-20T06:06:11;100746.25;;;-0.94;100.00
12666;BME280;58531;59.050;17.416;2022-11-20T06:08:38;100749.56;;;-0.97;100.00
12666;BME280;58531;59.050;17.416;2022-11-20T06:11:07;100746.25;;;-0.94;100.00
12666;BME280;58531;59.050;17.416;2022-11-20T06:13:36;100743.28;;;-0.92;100.00
12666;BME280;58531;59.050;17.416;2022-11-20T06:16:04;100746.31;;;-0.90;100.00
12666;BME280;58531;59.050;17.416;2022-11-20T06:18:31;100745.59;;;-0.87;100.00
12666;BME280;58531;59.050;17.416;2022-11-20T06:21:04;100738.44;;;-0.90;100.00
12666;BME280;58531;59.050;17.416;2022-11-20T06:23:33;100743.28;;;-0.92;100.00
12666;BME280;58531;59.050;17.416;2022-11-20T06:26:02;100737.31;;;-0.89;100.00
12666;BME280;58531;59.050;17.416;2022-11-20T06:28:29;100742.16;;;-0.91;100.00
12666;BME280;58531;59.050;17.416;2022-11-20T06:30:56;100733.94;;;-0.90;100.00
12666;BME280;58531;59.050;17.416;2022-11-20T06:33:24;100728.34;;;-0.88;100.00
12666;BME280;58531;59.050;17.416;2022-11-20T06:36:00;100737.03;;;-0.84;100.00
12666;BME280;58531;59.050;17.416;2022-11-20T06:38:29;100743.38;;;-0.85;100.00
12666;BME280;58531;59.050;17.416;2022-11-20T06:40:56;100737.38;;;-0.86;100.00
12666;BME280;58531;59.050;17.416;2022-11-20T06:43:24;100731.06;;;-0.81;100.00
12666;BME280;58531;59.050;17.416;2022-11-20T06:45:52;100719.06;;;-0.82;100.00
12666;BME280;58531;59.050;17.416;2022-11-20T06:48:19;100725.78;;;-0.85;100.00
12666;BME280;58531;59.050;17.416;2022-11-20T06:50:46;100725.38;;;-0.87;100.00
12666;BME280;58531;59.050;17.416;2022-11-20T06:53:13;100719.78;;;-0.85;100.00
12666;BME280;58531;59.050;17.416;2022-11-20T06:55:44;100711.91;;;-0.85;100.00
12666;BME280;58531;59.050;17.416;2022-11-20T06:58:15;100712.66;;;-0.85;100.00
12666;BME280;58531;59.050;17.416;2022-11-20T07:00:42;100714.97;;;-0.80;100.00
12666;BME280;58531;59.050;17.416;2022-11-20T07:03:11;100706.78;;;-0.78;100.00
12666;BME280;58531;59.050;17.416;2022-11-20T07:05:38;100709.72;;;-0.80;100.00
12666;BME280;58531;59.050;17.416;2022-11-20T07:08:06;100707.50;;;-0.78;100.00
12666;BME280;58531;59.050;17.416;2022-11-20T07:10:33;100701.56;;;-0.75;100.00
12666;BME280;58531;59.050;17.416;2022-11-20T07:13:01;100702.34;;;-0.71;100.00
12666;BME280;58531;59.050;17.416;2022-11-20T07:15:28;100694.81;;;-0.76;100.00
12666;BME280;58531;59.050;17.416;2022-11-20T07:17:57;100695.22;;;-0.70;100.00
12666;BME280;58531;59.050;17.416;2022-11-20T07:20:25;100692.28;;;-0.65;100.00
12666;BME280;58531;59.050;17.416;2022-11-20T07:22:53;100693.41;;;-0.66;100.00
12666;BME280;58531;59.050;17.416;2022-11-20T07:25:21;100691.97;;;-0.64;100.00
12666;BME280;58531;59.050;17.416;2022-11-20T07:27:49;100695.78;;;-0.58;100.00
12666;BME280;58531;59.050;17.416;2022-11-20T07:30:17;100687.53;;;-0.56;100.00
12666;BME280;58531;59.050;17.416;2022-11-20T07:32:46;100684.97;;;-0.53;100.00
12666;BME280;58531;59.050;17.416;2022-11-20T07:35:13;100691.44;;;-0.43;100.00
12666;BME280;58531;59.050;17.416;2022-11-20T07:37:41;100680.94;;;-0.43;100.00
12666;BME280;58531;59.050;17.416;2022-11-20T07:40:09;100687.69;;;-0.42;100.00
12666;BME280;58531;59.050;17.416;2022-11-20T07:42:36;100676.81;;;-0.44;100.00
12666;BME280;58531;59.050;17.416;2022-11-20T07:45:04;100674.97;;;-0.40;100.00
12666;BME280;58531;59.050;17.416;2022-11-20T07:47:36;100677.53;;;-0.44;100.00
12666;BME280;58531;59.050;17.416;2022-11-20T07:50:03;100679.47;;;-0.41;100.00
12666;BME280;58531;59.050;17.416;2022-11-20T07:52:30;100672.69;;;-0.45;100.00
12666;BME280;58531;59.050;17.416;2022-11-20T07:54:58;100679.44;;;-0.44;100.00
12666;BME280;58531;59.050;17.416;2022-11-20T07:57:24;100678.31;;;-0.43;100.00
12666;BME280;58531;59.050;17.416;2022-11-20T07:59:53;100668.94;;;-0.44;100.00
12666;BME280;58531;59.050;17.416;2022-11-20T08:02:20;100666.31;;;-0.44;100.00
12666;BME280;58531;59.050;17.416;2022-11-20T08:04:48;100666.38;;;-0.37;100.00
12666;BME280;58531;59.050;17.416;2022-11-20T08:07:15;100664.88;;;-0.38;100.00
12666;BME280;58531;59.050;17.416;2022-11-20T08:09:42;100665.66;;;-0.34;100.00
12666;BME280;58531;59.050;17.416;2022-11-20T08:12:10;100663.44;;;-0.32;100.00
12666;BME280;58531;59.050;17.416;2022-11-20T08:15:00;100648.84;;;-0.30;100.00
12666;BME280;58531;59.050;17.416;2022-11-20T08:17:28;100651.13;;;-0.28;100.00
12666;BME280;58531;59.050;17.416;2022-11-20T08:19:56;100649.63;;;-0.26;100.00
12666;BME280;58531;59.050;17.416;2022-11-20T08:22:23;100645.91;;;-0.21;100.00
12666;BME280;58531;59.050;17.416;2022-11-20T08:24:50;100642.94;;;-0.20;100.00
12666;BME280;58531;59.050;17.416;2022-11-20T08:27:17;100637.38;;;-0.11;100.00
12666;BME280;58531;59.050;17.416;2022-11-20T08:29:44;100637.03;;;-0.10;100.00
12666;BME280;58531;59.050;17.416;2022-11-20T08:32:11;100637.03;;;-0.10;100.00
12666;BME280;58531;59.050;17.416;2022-11-20T08:34:38;100637.00;;;-0.13;100.00
12666;BME280;58531;59.050;17.416;2022-11-20T08:37:06;100628.00;;;-0.12;100.00
12666;BME280;58531;59.050;17.416;2022-11-20T08:39:34;100623.09;;;-0.17;100.00
12666;BME280;58531;59.050;17.416;2022-11-20T08:42:01;100617.59;;;-0.02;100.00
12666;BME280;58531;59.050;17.416;2022-11-20T08:44:28;100624.00;;;0.00;100.00
12666;BME280;58531;59.050;17.416;2022-11-20T08:46:55;100624.41;;;0.06;100.00
12666;BME280;58531;59.050;17.416;2022-11-20T08:49:22;100612.09;;;0.13;100.00
12666;BME280;58531;59.050;17.416;2022-11-20T08:51:49;100618.84;;;0.14;100.00
12666;BME280;58531;59.050;17.416;2022-11-20T08:54:20;100615.50;;;0.17;100.00
12666;BME280;58531;59.050;17.416;2022-11-20T08:56:48;100615.91;;;0.26;100.00
12666;BME280;58531;59.050;17.416;2022-11-20T08:59:14;100605.78;;;0.25;100.00
12666;BME280;58531;59.050;17.416;2022-11-20T09:01:41;100600.94;;;0.30;100.00
12666;BME280;58531;59.050;17.416;2022-11-20T09:04:08;100590.44;;;0.30;100.00
12666;BME280;58531;59.050;17.416;2022-11-20T09:06:35;100592.72;;;0.32;100.00
12666;BME280;58531;59.050;17.416;2022-11-20T09:09:02;100592.72;;;0.35;100.00
12666;BME280;58531;59.050;17.416;2022-11-20T09:11:32;100591.19;;;0.31;100.00
12666;BME280;58531;59.050;17.416;2022-11-20T09:14:00;100586.31;;;0.29;100.00
12666;BME280;58531;59.050;17.416;2022-11-20T09:16:28;100588.56;;;0.31;100.00
12666;BME280;58531;59.050;17.416;2022-11-20T09:18:55;100579.63;;;0.42;100.00
12666;BME280;58531;59.050;17.416;2022-11-20T09:21:21;100579.31;;;0.54;100.00
12666;BME280;58531;59.050;17.416;2022-11-20T09:23:49;100565.41;;;0.50;100.00
12666;BME280;58531;59.050;17.416;2022-11-20T09:26:16;100569.88;;;0.43;100.00
12666;BME280;58531;59.050;17.416;2022-11-20T09:28:46;100575.50;;;0.38;100.00
12666;BME280;58531;59.050;17.416;2022-11-20T09:31:19;100566.84;;;0.37;100.00
12666;BME280;58531;59.050;17.416;2022-11-20T09:33:48;100569.47;;;0.34;100.00
12666;BME280;58531;59.050;17.416;2022-11-20T09:36:15;100557.84;;;0.38;100.00
12666;BME280;58531;59.050;17.416;2022-11-20T09:38:43;100558.97;;;0.37;100.00
12666;BME280;58531;59.050;17.416;2022-11-20T09:41:25;100559.72;;;0.38;100.00
12666;BME280;58531;59.050;17.416;2022-11-20T09:44:05;100554.88;;;0.40;100.00
12666;BME280;58531;59.050;17.416;2022-11-20T09:46:43;100550.31;;;0.33;100.00
12666;BME280;58531;59.050;17.416;2022-11-20T09:49:23;100548.34;;;0.16;100.00
12666;BME280;58531;59.050;17.416;2022-11-20T09:51:58;100549.09;;;0.17;100.00
12666;BME280;58531;59.050;17.416;2022-11-20T09:54:29;100542.38;;;0.23;100.00
12666;BME280;58531;59.050;17.416;2022-11-20T09:57:00;100544.22;;;0.15;100.00
12666;BME280;58531;59.050;17.416;2022-11-20T09:59:34;100539.69;;;0.12;100.00
12666;BME280;58531;59.050;17.416;2022-11-20T10:02:14;100537.06;;;0.12;100.00
12666;BME280;58531;59.050;17.416;2022-11-20T10:04:45;100521.31;;;0.12;100.00
12666;BME280;58531;59.050;17.416;2022-11-20T10:07:18;100516.78;;;0.06;100.00
12666;BME280;58531;59.050;17.416;2022-11-20T10:09:51;100511.91;;;0.04;100.00
12666;BME280;58531;59.050;17.416;2022-11-20T10:12:24;100514.13;;;0.06;100.00
12666;BME280;58531;59.050;17.416;2022-11-20T10:15:07;100509.66;;;0.06;100.00
12666;BME280;58531;59.050;17.416;2022-11-20T10:17:58;100496.22;;;0.18;100.00
12666;BME280;58531;59.050;17.416;2022-11-20T10:20:37;100501.13;;;0.23;100.00
12666;BME280;58531;59.050;17.416;2022-11-20T10:23:30;100498.56;;;0.34;100.00
12666;BME280;58531;59.050;17.416;2022-11-20T10:26:02;100502.34;;;0.43;100.00
12666;BME280;58531;59.050;17.416;2022-11-20T10:28:39;100497.84;;;0.47;100.00
12666;BME280;58531;59.050;17.416;2022-11-20T10:31:26;100491.13;;;0.53;100.00
12666;BME280;58531;59.050;17.416;2022-11-20T10:33:57;100502.00;;;0.52;100.00
12666;BME280;58531;59.050;17.416;2022-11-20T10:36:28;100497.47;;;0.45;100.00
12666;BME280;58531;59.050;17.416;2022-11-20T10:39:01;100492.59;;;0.47;100.00
12666;BME280;58531;59.050;17.416;2022-11-20T10:41:34;100480.59;;;0.43;100.00
12666;BME280;58531;59.050;17.416;2022-11-20T10:44:05;100490.69;;;0.37;100.00
12666;BME280;58531;59.050;17.416;2022-11-20T10:46:40;100479.75;;;0.28;100.00
12666;BME280;58531;59.050;17.416;2022-11-20T10:49:13;100477.16;;;0.32;100.00
12666;BME280;58531;59.050;17.416;2022-11-20T10:51:51;100472.63;;;0.32;100.00
12666;BME280;58531;59.050;17.416;2022-11-20T10:54:31;100470.81;;;0.40;100.00
12666;BME280;58531;59.050;17.416;2022-11-20T10:57:06;100461.03;;;0.33;100.00
12666;BME280;58531;59.050;17.416;2022-11-20T10:59:59;100465.91;;;0.35;100.00
12666;BME280;58531;59.050;17.416;2022-11-20T11:02:35;100461.03;;;0.33;100.00
12666;BME280;58531;59.050;17.416;2022-11-20T11:05:16;100467.00;;;0.30;100.00
12666;BME280;58531;59.050;17.416;2022-11-20T11:07:46;100452.00;;;0.34;100.00
12666;BME280;58531;59.050;17.416;2022-11-20T11:10:21;100454.66;;;0.34;100.00
12666;BME280;58531;59.050;17.416;2022-11-20T11:12:50;100444.13;;;0.34;100.00
12666;BME280;58531;59.050;17.416;2022-11-20T11:15:26;100450.50;;;0.30;100.00
12666;BME280;58531;59.050;17.416;2022-11-20T11:17:55;100446.75;;;0.31;100.00
12666;BME280;58531;59.050;17.416;2022-11-20T11:20:24;100434.72;;;0.26;100.00
12666;BME280;58531;59.050;17.416;2022-11-20T11:22:53;100436.22;;;0.24;100.00
12666;BME280;58531;59.050;17.416;2022-11-20T11:25:29;100430.94;;;0.13;100.00
12666;BME280;58531;59.050;17.416;2022-11-20T11:28:00;100432.44;;;0.14;100.00
12666;BME280;58531;59.050;17.416;2022-11-20T11:30:29;100424.94;;;0.13;100.00
12666;BME280;58531;59.050;17.416;2022-11-20T11:33:06;100421.56;;;0.12;100.00
12666;BME280;58531;59.050;17.416;2022-11-20T11:35:33;100413.66;;;0.05;100.00
12666;BME280;58531;59.050;17.416;2022-11-20T11:38:05;100405.03;;;0.08;100.00
12666;BME280;58531;59.050;17.416;2022-11-20T11:40:35;100394.16;;;0.10;100.00
12666;BME280;58531;59.050;17.416;2022-11-20T11:43:05;100410.66;;;0.03;100.00
12666;BME280;58531;59.050;17.416;2022-11-20T11:45:54;100390.41;;;0.07;100.00
12666;BME280;58531;59.050;17.416;2022-11-20T11:48:22;100388.56;;;0.11;100.00
12666;BME280;58531;59.050;17.416;2022-11-20T11:50:49;100390.47;;;0.21;100.00
12666;BME280;58531;59.050;17.416;2022-11-20T11:53:18;100386.28;;;0.10;100.00
12666;BME280;58531;59.050;17.416;2022-11-20T11:55:50;100384.44;;;0.10;100.00
12666;BME280;58531;59.050;17.416;2022-11-20T11:58:40;100377.63;;;0.02;100.00
12666;BME280;58531;59.050;17.416;2022-11-20T12:01:20;100369.78;;;0.06;100.00
12666;BME280;58531;59.050;17.416;2022-11-20T12:03:59;100371.28;;;0.03;100.00
12666;BME280;58531;59.050;17.416;2022-11-20T12:06:30;100376.88;;;-0.02;100.00
12666;BME280;58531;59.050;17.416;2022-11-20T12:09:01;100369.38;;;0.00;100.00
12666;BME280;58531;59.050;17.416;2022-11-20T12:11:34;100366.38;;;-0.02;100.00
12666;BME280;58531;59.050;17.416;2022-11-20T12:14:11;100362.28;;;0.04;100.00
12666;BME280;58531;59.050;17.416;2022-11-20T12:16:41;100357.03;;;0.04;100.00
12666;BME280;58531;59.050;17.416;2022-11-20T12:19:11;100352.50;;;0.01;100.00
12666;BME280;58531;59.050;17.416;2022-11-20T12:21:46;100358.50;;;-0.02;100.00
12666;BME280;58531;59.050;17.416;2022-11-20T12:27:44;100340.91;;;-0.01;100.00
12666;BME280;58531;59.050;17.416;2022-11-20T12:30:16;100336.34;;;-0.07;100.00
12666;BME280;58531;59.050;17.416;2022-11-20T12:33:12;100326.28;;;-0.02;100.00
12666;BME280;58531;59.050;17.416;2022-11-20T12:35:56;100322.88;;;-0.03;100.00
12666;BME280;58531;59.050;17.416;2022-11-20T12:41:43;100323.25;;;-0.01;100.00
12666;BME280;58531;59.050;17.416;2022-11-20T12:44:45;100311.66;;;-0.03;100.00
12666;BME280;58531;59.050;17.416;2022-11-20T12:47:49;100312.38;;;-0.03;100.00
12666;BME280;58531;59.050;17.416;2022-11-20T12:50:26;100306.00;;;-0.05;100.00
12666;BME280;58531;59.050;17.416;2022-11-20T12:53:02;100299.63;;;-0.07;100.00
12666;BME280;58531;59.050;17.416;2022-11-20T12:55:36;100298.13;;;-0.08;100.00